Time;durP1;ratioP1;P1;durP2;ratioP2;P2;SDS_P1;SDS_P2;PMS_P1;PMS_P2;Temp;Humidity;BMP_temperature;BMP_pressure;BME280_temperature;BME280_humidity;BME280_pressure;Samples;Min_cycle;Max_cycle;Signal;HPM_P1;HPM_P2
2022/03/23 00:00:26;;;;;;;30.77;18.43;;;12.00;54.40;;;;;;4976418;28;20212;-52
2022/03/23 00:02:53;;;;;;;30.13;17.30;;;12.00;99.90;;;;;;4975031;28;20226;-51
2022/03/23 00:05:20;;;;;;;32.20;18.13;;;11.90;99.90;;;;;;4975037;28;20203;-52
2022/03/23 00:07:49;;;;;;;28.07;17.90;;;11.90;99.90;;;;;;4975097;28;20710;-52
2022/03/23 00:10:16;;;;;;;34.03;18.87;;;11.80;99.90;;;;;;4972232;28;20232;-50
2022/03/23 00:12:44;;;;;;;27.90;18.80;;;11.80;99.90;;;;;;4974644;28;20306;-49
2022/03/23 00:15:12;;;;;;;32.07;19.37;;;11.70;99.90;;;;;;4975935;28;20441;-52
2022/03/23 00:17:42;;;;;;;27.63;17.23;;;11.70;99.90;;;;;;4977788;28;20210;-53
2022/03/23 00:20:09;;;;;;;27.27;18.43;;;11.70;99.90;;;;;;4976290;28;20208;-52
2022/03/23 00:22:36;;;;;;;30.00;18.13;;;11.70;99.90;;;;;;4975802;28;20805;-53
2022/03/23 00:25:04;;;;;;;27.90;18.60;;;11.50;1.00;;;;;;4972657;28;20983;-53
2022/03/23 00:27:30;;;;;;;29.90;19.30;;;11.50;1.00;;;;;;4979984;28;20660;-49
2022/03/23 00:29:57;;;;;;;31.70;19.47;;;11.50;1.00;;;;;;4976567;28;20289;-52
2022/03/23 00:32:24;;;;;;;27.57;18.43;;;11.40;1.00;;;;;;4978046;28;20284;-52
2022/03/23 00:34:51;;;;;;;26.30;17.07;;;11.30;1.00;;;;;;4976801;28;20294;-51
2022/03/23 00:37:18;;;;;;;31.00;18.53;;;11.30;1.00;;;;;;4979662;28;20333;-52
2022/03/23 00:39:45;;;;;;;29.53;18.50;;;11.30;1.00;;;;;;4970333;28;20639;-53
2022/03/23 00:42:11;;;;;;;30.73;18.03;;;11.30;1.00;;;;;;4977296;28;20257;-50
2022/03/23 00:44:38;;;;;;;31.87;18.80;;;11.30;1.00;;;;;;4978201;28;20230;-54
2022/03/23 00:47:05;;;;;;;30.17;18.10;;;11.30;1.00;;;;;;4976774;28;20350;-52
2022/03/23 00:49:32;;;;;;;30.87;18.63;;;11.30;1.00;;;;;;4974380;28;20736;-52
2022/03/23 00:52:02;;;;;;;28.00;19.10;;;11.30;1.00;;;;;;4979947;28;20294;-51
2022/03/23 00:54:29;;;;;;;29.67;19.20;;;11.10;1.00;;;;;;4977023;28;20332;-51
2022/03/23 00:56:56;;;;;;;30.63;19.87;;;11.10;1.00;;;;;;4979810;28;20296;-51
2022/03/23 00:59:22;;;;;;;28.60;19.30;;;11.10;1.00;;;;;;4977808;28;21053;-53
2022/03/23 01:01:50;;;;;;;35.30;18.87;;;11.00;1.00;;;;;;4972645;28;20243;-51
2022/03/23 01:04:18;;;;;;;33.80;19.50;;;11.00;1.00;;;;;;4976443;28;20597;-52
2022/03/23 01:06:45;;;;;;;27.93;18.20;;;11.00;1.00;;;;;;4974294;28;20229;-53
2022/03/23 01:09:12;;;;;;;32.13;18.80;;;11.10;1.00;;;;;;4972385;28;20290;-53
2022/03/23 01:11:40;;;;;;;29.80;19.10;;;11.10;1.00;;;;;;4969498;28;20231;-50
2022/03/23 01:14:07;;;;;;;31.20;19.50;;;11.10;1.00;;;;;;4978088;28;20235;-54
2022/03/23 01:16:34;;;;;;;27.00;19.03;;;11.00;1.00;;;;;;4972060;28;20270;-52
2022/03/23 01:19:01;;;;;;;27.90;18.40;;;11.00;1.00;;;;;;4974920;28;20671;-52
2022/03/23 01:21:28;;;;;;;30.63;18.83;;;11.00;1.00;;;;;;4973681;28;20744;-54
2022/03/23 01:23:55;;;;;;;31.73;18.60;;;10.90;1.00;;;;;;4974180;28;20208;-52
2022/03/23 01:26:22;;;;;;;32.10;18.53;;;10.90;1.00;;;;;;4976163;28;20319;-53
2022/03/23 01:28:50;;;;;;;32.80;19.23;;;10.80;1.00;;;;;;4976302;28;20204;-53
2022/03/23 01:31:17;;;;;;;30.57;19.20;;;10.70;1.00;;;;;;4968753;28;20204;-54
2022/03/23 01:33:44;;;;;;;26.23;17.83;;;10.60;1.00;;;;;;4962248;28;20203;-54
2022/03/23 01:36:11;;;;;;;29.57;19.07;;;10.50;99.90;;;;;;4975176;28;20301;-53
2022/03/23 01:38:38;;;;;;;29.30;19.20;;;10.50;99.90;;;;;;4976717;28;20720;-54
2022/03/23 01:41:04;;;;;;;28.80;19.03;;;10.60;56.20;;;;;;4970985;28;20665;-54
2022/03/23 01:43:33;;;;;;;31.97;18.43;;;10.50;28.50;;;;;;4978131;28;20245;-55
2022/03/23 01:46:00;;;;;;;32.03;19.87;;;10.60;1.00;;;;;;4979850;28;20293;-55
2022/03/23 01:48:27;;;;;;;29.50;19.90;;;10.60;14.40;;;;;;4978045;28;20271;-53
2022/03/23 01:50:55;;;;;;;29.73;18.70;;;10.60;99.90;;;;;;4977962;28;20622;-52
2022/03/23 01:53:22;;;;;;;35.87;19.50;;;10.50;99.90;;;;;;4972253;28;20899;-53
2022/03/23 01:55:50;;;;;;;30.77;19.77;;;10.50;99.90;;;;;;4978973;28;20209;-52
2022/03/23 01:58:20;;;;;;;29.30;19.10;;;10.50;99.90;;;;;;4976736;28;20282;-51
2022/03/23 02:00:47;;;;;;;29.87;19.83;;;10.40;99.90;;;;;;4973446;28;20219;-52
2022/03/23 02:03:15;;;;;;;29.63;19.30;;;10.30;99.90;;;;;;4972928;28;20269;-53
2022/03/23 02:05:42;;;;;;;29.27;19.10;;;10.30;1.00;;;;;;4973924;28;20727;-53
2022/03/23 02:08:10;;;;;;;29.13;19.00;;;10.40;99.90;;;;;;4972555;28;20296;-54
2022/03/23 02:10:37;;;;;;;34.30;19.17;;;10.30;1.00;;;;;;4972473;28;20197;-55
2022/03/23 02:13:05;;;;;;;29.73;18.40;;;10.20;1.00;;;;;;4972253;28;20245;-52
2022/03/23 02:15:33;;;;;;;28.93;18.83;;;10.10;1.00;;;;;;4976109;28;20237;-53
2022/03/23 02:18:00;;;;;;;25.57;18.63;;;10.10;1.00;;;;;;4974546;28;20208;-52
2022/03/23 02:20:27;;;;;;;29.93;19.23;;;10.10;1.00;;;;;;4976127;28;20202;-53
2022/03/23 02:22:55;;;;;;;25.73;17.53;;;10.20;1.00;;;;;;4972449;28;20226;-53
2022/03/23 02:25:25;;;;;;;31.33;18.90;;;10.20;1.00;;;;;;4974190;28;20270;-53
2022/03/23 02:27:54;;;;;;;31.17;18.13;;;10.10;1.00;;;;;;4975800;28;20272;-54
2022/03/23 02:30:22;;;;;;;29.13;19.47;;;10.10;1.00;;;;;;4974036;28;20202;-53
2022/03/23 02:32:49;;;;;;;29.67;18.27;;;10.00;1.00;;;;;;4973390;28;20710;-56
2022/03/23 02:35:17;;;;;;;30.40;17.73;;;9.90;1.00;;;;;;4976015;28;20209;-54
2022/03/23 02:37:44;;;;;;;28.33;17.93;;;10.00;1.00;;;;;;4975871;28;20280;-55
2022/03/23 02:40:11;;;;;;;26.17;18.47;;;9.90;1.00;;;;;;4972070;28;20217;-53
2022/03/23 02:42:39;;;;;;;31.53;19.17;;;9.90;1.00;;;;;;4976919;28;20685;-52
2022/03/23 02:45:07;;;;;;;26.10;18.43;;;9.70;1.00;;;;;;4974325;28;20272;-59
2022/03/23 02:47:34;;;;;;;31.93;19.53;;;9.60;1.00;;;;;;4975559;28;20201;-52
2022/03/23 02:50:01;;;;;;;26.10;18.10;;;9.60;1.00;;;;;;4976494;28;20214;-53
2022/03/23 02:52:31;;;;;;;27.70;19.23;;;9.60;1.00;;;;;;4979988;28;20233;-52
2022/03/23 03:03:58;;;;;;;24.83;17.77;;;9.60;1.00;;;;;;4976949;28;20292;-54
2022/03/23 03:06:24;;;;;;;26.93;17.77;;;9.50;1.00;;;;;;4979215;28;20246;-53
2022/03/23 03:08:51;;;;;;;27.63;18.47;;;9.60;1.00;;;;;;4977424;28;20198;-53
2022/03/23 03:11:20;;;;;;;27.83;17.40;;;9.50;1.00;;;;;;4974646;28;20292;-53
2022/03/23 03:13:48;;;;;;;29.50;16.47;;;9.60;1.00;;;;;;4977430;28;20304;-56
2022/03/23 03:16:15;;;;;;;32.60;19.37;;;9.60;1.00;;;;;;4974367;28;20214;-52
2022/03/23 03:18:43;;;;;;;28.83;16.40;;;9.60;99.90;;;;;;4975823;28;20206;-54
2022/03/23 03:21:11;;;;;;;28.30;17.80;;;9.60;1.00;;;;;;4975953;28;20246;-52
2022/03/23 03:23:41;;;;;;;27.20;17.07;;;9.60;1.00;;;;;;4976258;28;20225;-53
2022/03/23 03:26:09;;;;;;;29.00;18.70;;;9.40;1.00;;;;;;4977874;28;20206;-52
2022/03/23 03:28:37;;;;;;;28.70;18.97;;;9.40;1.00;;;;;;4977267;28;20260;-51
2022/03/23 03:31:07;;;;;;;26.83;18.20;;;9.40;99.90;;;;;;4976136;28;20565;-50
2022/03/23 03:33:35;;;;;;;31.60;17.53;;;9.40;99.90;;;;;;4973066;28;20325;-53
2022/03/23 03:36:03;;;;;;;25.90;16.40;;;9.50;1.00;;;;;;4980437;28;20233;-53
2022/03/23 03:38:31;;;;;;;29.17;17.30;;;9.20;1.00;;;;;;4974942;28;20316;-52
2022/03/23 03:40:58;;;;;;;30.10;18.20;;;9.10;99.90;;;;;;4977884;28;20694;-53
2022/03/23 03:43:26;;;;;;;29.83;17.27;;;8.70;99.90;;;;;;4975774;28;20241;-52
2022/03/23 03:45:53;;;;;;;26.60;17.57;;;8.70;99.90;;;;;;4977235;28;20622;-52
2022/03/23 03:48:20;;;;;;;29.87;18.07;;;8.60;1.00;;;;;;4975777;28;20197;-54
2022/03/23 03:50:48;;;;;;;28.83;17.33;;;8.80;99.90;;;;;;4975697;28;20240;-54
2022/03/23 03:53:15;;;;;;;28.80;16.90;;;8.80;99.90;;;;;;4976315;28;20637;-54
2022/03/23 03:55:42;;;;;;;31.93;17.77;;;8.80;99.90;;;;;;4977438;28;20240;-55
2022/03/23 03:58:09;;;;;;;28.73;17.07;;;8.80;1.00;;;;;;4972965;28;20206;-53
2022/03/23 04:00:36;;;;;;;28.10;17.47;;;8.80;67.30;;;;;;4972850;28;20310;-54
2022/03/23 04:03:04;;;;;;;29.70;18.30;;;8.80;1.00;;;;;;4970187;28;20638;-53
2022/03/23 04:05:34;;;;;;;31.30;16.77;;;9.00;99.90;;;;;;4973804;28;20969;-50
2022/03/23 04:08:02;;;;;;;31.07;19.20;;;9.10;99.90;;;;;;4977936;28;20212;-53
2022/03/23 04:10:29;;;;;;;26.17;16.30;;;9.30;1.00;;;;;;4978808;28;20237;-52
2022/03/23 04:12:57;;;;;;;24.63;16.93;;;9.50;1.00;;;;;;4976601;28;20225;-53
2022/03/23 04:15:25;;;;;;;29.53;17.37;;;9.50;99.90;;;;;;4979800;28;20594;-53
2022/03/23 04:17:54;;;;;;;26.60;17.10;;;9.50;1.00;;;;;;4976038;28;20212;-53
2022/03/23 04:20:22;;;;;;;27.33;17.63;;;9.50;1.00;;;;;;4972172;28;20717;-52
2022/03/23 04:22:49;;;;;;;29.80;17.73;;;9.50;1.00;;;;;;4975925;28;20623;-52
2022/03/23 04:25:17;;;;;;;31.50;17.63;;;9.30;1.00;;;;;;4978911;28;20235;-53
2022/03/23 04:27:46;;;;;;;30.70;19.13;;;9.30;1.00;;;;;;4978676;28;20255;-55
2022/03/23 04:30:14;;;;;;;29.77;18.20;;;9.30;1.00;;;;;;4977596;28;20411;-55
2022/03/23 04:32:41;;;;;;;35.27;17.70;;;9.30;1.00;;;;;;4977701;28;20310;-53
2022/03/23 04:35:08;;;;;;;29.83;18.10;;;9.40;1.00;;;;;;4979188;28;20312;-55
2022/03/23 04:37:35;;;;;;;35.70;19.67;;;9.30;99.90;;;;;;4981012;28;20284;-54
2022/03/23 04:40:04;;;;;;;32.00;18.70;;;9.20;1.00;;;;;;4979921;28;20637;-55
2022/03/23 04:42:30;;;;;;;25.60;17.70;;;9.10;1.00;;;;;;4975694;28;20872;-53
2022/03/23 04:44:57;;;;;;;29.87;17.93;;;9.10;1.00;;;;;;4980352;28;20209;-53
2022/03/23 04:47:24;;;;;;;29.83;18.83;;;9.20;1.00;;;;;;4978994;28;20306;-55
2022/03/23 04:49:51;;;;;;;30.40;18.87;;;9.20;99.90;;;;;;4977400;28;20607;-54
2022/03/23 04:52:18;;;;;;;31.97;18.90;;;9.10;1.00;;;;;;4977095;28;20748;-52
2022/03/23 04:54:45;;;;;;;30.80;18.60;;;9.10;99.90;;;;;;4979376;28;20740;-53
2022/03/23 04:57:18;;;;;;;29.90;18.57;;;9.00;99.90;;;;;;4979338;28;20227;-54
2022/03/23 04:59:45;;;;;;;29.47;18.60;;;9.00;1.00;;;;;;4980128;28;20201;-53
2022/03/23 05:02:12;;;;;;;34.43;17.43;;;8.90;1.00;;;;;;4978126;28;20247;-54
2022/03/23 05:04:39;;;;;;;30.37;19.40;;;8.80;1.00;;;;;;4978479;28;20551;-54
2022/03/23 05:07:06;;;;;;;31.70;19.13;;;8.80;1.00;;;;;;4979012;28;20261;-54
2022/03/23 05:09:33;;;;;;;36.03;18.97;;;8.90;1.00;;;;;;4976802;28;20299;-53
2022/03/23 05:11:59;;;;;;;28.83;19.87;;;8.90;1.00;;;;;;4978655;28;20696;-52
2022/03/23 05:14:26;;;;;;;29.30;19.30;;;8.90;1.00;;;;;;4979408;28;20683;-52
2022/03/23 05:16:53;;;;;;;29.17;18.20;;;8.80;1.00;;;;;;4977242;28;20316;-55
2022/03/23 05:19:20;;;;;;;35.90;18.87;;;8.70;1.00;;;;;;4977697;28;20210;-51
2022/03/23 05:21:47;;;;;;;29.17;19.13;;;8.70;1.00;;;;;;4981105;28;20205;-55
2022/03/23 05:24:14;;;;;;;35.93;20.13;;;8.70;1.00;;;;;;4977604;28;20316;-52
2022/03/23 05:26:41;;;;;;;29.40;19.00;;;8.70;1.00;;;;;;4974971;28;20371;-54
2022/03/23 05:29:09;;;;;;;32.53;18.33;;;8.60;1.00;;;;;;4973998;28;20326;-52
2022/03/23 05:31:36;;;;;;;28.10;17.53;;;8.70;1.00;;;;;;4975141;28;20285;-54
2022/03/23 05:34:03;;;;;;;30.93;19.43;;;8.70;1.00;;;;;;4973018;28;20301;-53
2022/03/23 05:36:30;;;;;;;34.63;20.73;;;8.60;1.00;;;;;;4978213;28;20699;-53
2022/03/23 05:39:00;;;;;;;36.53;19.80;;;8.50;1.00;;;;;;4977322;28;20257;-49
2022/03/23 05:41:27;;;;;;;29.33;17.73;;;8.50;1.00;;;;;;4977337;28;20336;-55
2022/03/23 05:43:54;;;;;;;35.37;19.77;;;8.50;1.00;;;;;;4974754;28;20319;-52
2022/03/23 05:46:21;;;;;;;30.47;18.13;;;8.50;1.00;;;;;;4977435;28;20712;-54
2022/03/23 05:48:47;;;;;;;30.83;19.40;;;8.60;1.00;;;;;;4975811;28;20390;-53
2022/03/23 05:51:15;;;;;;;32.43;19.43;;;8.60;1.00;;;;;;4971756;28;20296;-54
2022/03/23 05:53:42;;;;;;;30.97;20.20;;;8.60;1.00;;;;;;4977698;28;20320;-52
2022/03/23 05:56:08;;;;;;;32.30;19.30;;;8.50;1.00;;;;;;4976129;28;20331;-53
2022/03/23 05:58:35;;;;;;;33.87;18.83;;;7.70;1.00;;;;;;4975234;28;21024;-53
2022/03/23 06:01:03;;;;;;;30.63;18.43;;;7.60;1.00;;;;;;4978007;28;20246;-52
2022/03/23 06:03:31;;;;;;;34.73;19.73;;;7.90;1.00;;;;;;4973937;28;21184;-56
2022/03/23 06:05:58;;;;;;;33.10;18.47;;;8.10;1.00;;;;;;4976255;28;20267;-53
2022/03/23 06:08:25;;;;;;;34.60;19.57;;;8.20;99.90;;;;;;4974628;28;20987;-54
2022/03/23 06:10:52;;;;;;;33.97;20.27;;;8.30;1.00;;;;;;4975751;28;20523;-54
2022/03/23 06:13:19;;;;;;;29.67;20.00;;;8.30;1.00;;;;;;4974418;28;22516;-52
2022/03/23 06:15:46;;;;;;;38.13;18.67;;;8.40;1.00;;;;;;4978161;28;20292;-57
2022/03/23 06:18:13;;;;;;;32.77;20.60;;;8.40;1.00;;;;;;4972544;28;20208;-52
2022/03/23 06:20:40;;;;;;;28.03;18.53;;;8.40;1.00;;;;;;4973808;28;20212;-56
2022/03/23 06:23:07;;;;;;;30.57;20.03;;;8.50;1.00;;;;;;4976050;28;20707;-53
2022/03/23 06:25:35;;;;;;;34.47;18.60;;;8.60;99.90;;;;;;4975132;28;20682;-55
2022/03/23 06:28:02;;;;;;;34.20;19.50;;;8.60;99.90;;;;;;4976636;28;20660;-52
2022/03/23 06:30:29;;;;;;;31.60;19.60;;;8.50;99.90;;;;;;4975887;28;20557;-53
2022/03/23 06:32:56;;;;;;;31.07;19.47;;;8.60;99.90;;;;;;4970569;28;20284;-52
2022/03/23 06:35:24;;;;;;;32.30;19.87;;;8.60;99.90;;;;;;4974511;28;20235;-52
2022/03/23 06:37:50;;;;;;;29.27;18.73;;;8.70;99.90;;;;;;4976119;28;20320;-53
2022/03/23 06:40:18;;;;;;;32.47;18.90;;;8.80;99.90;;;;;;4975451;28;20545;-52
2022/03/23 06:42:50;;;;;;;32.20;19.37;;;8.90;99.90;;;;;;4974372;28;20304;-53
2022/03/23 06:45:17;;;;;;;28.30;18.80;;;9.10;1.00;;;;;;4977639;28;20206;-53
2022/03/23 06:47:43;;;;;;;30.27;18.27;;;9.30;1.00;;;;;;4972708;28;20779;-53
2022/03/23 06:50:11;;;;;;;32.90;18.73;;;9.40;1.00;;;;;;4973074;28;20202;-55
2022/03/23 06:52:38;;;;;;;31.00;19.73;;;9.60;1.00;;;;;;4978803;28;20291;-53
2022/03/23 06:55:05;;;;;;;29.20;19.10;;;9.80;99.90;;;;;;4977724;28;20296;-53
2022/03/23 06:57:32;;;;;;;29.20;19.37;;;9.90;1.00;;;;;;4973712;28;20208;-53
2022/03/23 06:59:59;;;;;;;35.03;19.10;;;10.00;99.90;;;;;;4974306;28;20331;-53
2022/03/23 07:02:26;;;;;;;34.30;20.60;;;10.10;99.90;;;;;;4970113;28;20673;-53
2022/03/23 07:04:53;;;;;;;31.07;19.07;;;10.00;1.00;;;;;;4975508;28;20252;-53
2022/03/23 07:07:20;;;;;;;27.37;17.93;;;10.20;1.00;;;;;;4973270;28;20639;-53
2022/03/23 07:09:47;;;;;;;30.33;19.57;;;10.20;1.00;;;;;;4974075;28;20717;-56
2022/03/23 07:12:14;;;;;;;33.37;18.63;;;10.40;1.00;;;;;;4975440;28;20582;-54
2022/03/23 07:14:42;;;;;;;32.37;19.40;;;10.30;1.00;;;;;;4974007;28;20245;-54
2022/03/23 07:17:09;;;;;;;36.17;21.07;;;10.50;99.90;;;;;;4969229;28;20868;-53
2022/03/23 07:19:36;;;;;;;28.07;19.47;;;10.50;99.90;;;;;;4969677;28;20207;-52
2022/03/23 07:22:03;;;;;;;38.03;18.73;;;10.80;99.90;;;;;;4972356;28;20966;-55
2022/03/23 07:24:30;;;;;;;36.33;19.63;;;11.00;99.90;;;;;;4970772;28;20296;-55
2022/03/23 07:26:57;;;;;;;33.40;19.93;;;11.20;99.90;;;;;;4972055;28;20553;-55
2022/03/23 07:29:43;;;;;;;32.47;19.73;;;11.20;5.90;;;;;;4964173;28;20790;-53
2022/03/23 07:32:10;;;;;;;29.63;20.13;;;11.30;99.90;;;;;;4967296;28;20322;-53
2022/03/23 07:34:37;;;;;;;31.30;19.30;;;11.20;1.00;;;;;;4968969;28;20209;-55
2022/03/23 07:37:04;;;;;;;31.93;20.97;;;11.40;72.70;;;;;;4972627;28;20658;-52
2022/03/23 07:39:31;;;;;;;35.87;20.60;;;11.70;1.00;;;;;;4970547;28;20706;-53
2022/03/23 07:41:59;;;;;;;30.60;19.60;;;11.80;1.00;;;;;;4965545;28;20341;-54
2022/03/23 07:44:26;;;;;;;28.13;21.23;;;12.00;1.00;;;;;;4973450;28;20316;-54
2022/03/23 07:46:52;;;;;;;33.77;21.37;;;12.10;1.00;;;;;;4974153;28;20376;-53
2022/03/23 07:49:19;;;;;;;39.13;21.40;;;12.10;1.00;;;;;;4970782;28;20265;-53
2022/03/23 07:51:46;;;;;;;31.67;19.87;;;12.10;1.00;;;;;;4976717;28;20233;-54
2022/03/23 07:54:13;;;;;;;31.30;20.70;;;12.50;1.00;;;;;;4977120;28;20294;-53
2022/03/23 07:56:40;;;;;;;29.97;19.97;;;12.80;1.00;;;;;;4976635;28;20678;-53
2022/03/23 07:59:06;;;;;;;31.53;21.43;;;12.90;1.00;;;;;;4971082;28;20302;-52
2022/03/23 08:01:34;;;;;;;27.43;19.23;;;12.90;1.00;;;;;;4972463;28;20270;-52
2022/03/23 08:04:01;;;;;;;29.90;18.97;;;13.10;99.90;;;;;;4970855;28;20222;-52
2022/03/23 08:06:34;;;;;;;32.50;20.43;;;13.20;99.90;;;;;;4971178;28;20226;-53
2022/03/23 08:09:02;;;;;;;34.97;20.90;;;13.40;1.00;;;;;;4971705;28;20770;-53
2022/03/23 08:11:30;;;;;;;31.63;21.23;;;13.70;99.90;;;;;;4979562;28;21161;-52
2022/03/23 08:13:57;;;;;;;29.83;20.37;;;13.60;99.90;;;;;;4975227;28;20290;-53
2022/03/23 08:16:24;;;;;;;31.27;20.90;;;13.50;99.90;;;;;;4976409;28;20269;-53
2022/03/23 08:18:54;;;;;;;31.40;21.43;;;13.90;99.90;;;;;;4970453;28;20203;-53
2022/03/23 08:21:23;;;;;;;30.47;20.47;;;13.90;99.90;;;;;;4971584;28;20289;-52
2022/03/23 08:23:51;;;;;;;30.87;21.50;;;14.10;99.90;;;;;;4973006;28;20255;-52
2022/03/23 08:26:18;;;;;;;27.67;20.33;;;14.50;99.90;;;;;;4973570;28;20202;-53
2022/03/23 08:28:46;;;;;;;30.13;20.67;;;14.50;99.90;;;;;;4973778;28;20301;-50
2022/03/23 08:31:13;;;;;;;32.53;22.57;;;14.50;99.90;;;;;;4975893;28;20282;-51
2022/03/23 08:33:40;;;;;;;29.93;21.67;;;15.00;99.90;;;;;;4975024;28;20480;-53
2022/03/23 08:36:08;;;;;;;32.97;20.93;;;15.60;99.90;;;;;;4973081;28;20235;-55
2022/03/23 08:38:36;;;;;;;34.30;21.80;;;15.60;99.90;;;;;;4976886;28;20241;-54
2022/03/23 08:41:06;;;;;;;35.93;21.40;;;15.90;99.90;;;;;;4976552;28;20240;-53
2022/03/23 08:43:33;;;;;;;29.10;20.57;;;15.90;90.60;;;;;;4972801;28;20632;-53
2022/03/23 08:46:00;;;;;;;34.20;21.63;;;16.30;60.40;;;;;;4972873;28;21558;-52
2022/03/23 08:48:27;;;;;;;32.80;21.57;;;16.40;17.00;;;;;;4972036;28;20214;-50
2022/03/23 08:50:54;;;;;;;33.17;22.80;;;16.50;23.20;;;;;;4974425;28;20236;-52
2022/03/23 08:53:23;;;;;;;29.17;22.13;;;16.80;1.00;;;;;;4975245;28;20319;-53
2022/03/23 08:55:49;;;;;;;30.67;21.37;;;16.80;39.20;;;;;;4974954;28;20340;-52
2022/03/23 08:58:16;;;;;;;32.33;22.30;;;17.10;3.40;;;;;;4976421;28;20392;-52
2022/03/23 09:00:44;;;;;;;28.40;21.10;;;17.00;1.00;;;;;;4974527;28;20202;-51
2022/03/23 09:03:13;;;;;;;30.73;21.07;;;17.30;1.00;;;;;;4974106;28;20312;-52
2022/03/23 09:05:41;;;;;;;27.53;20.37;;;17.10;1.00;;;;;;4973165;28;20265;-52
2022/03/23 09:08:08;;;;;;;33.37;21.53;;;17.50;1.00;;;;;;4989700;28;20202;-54
2022/03/23 09:10:35;;;;;;;33.87;22.10;;;17.20;1.00;;;;;;4978416;28;20245;-52
2022/03/23 09:13:03;;;;;;;34.57;23.13;;;17.80;1.00;;;;;;4975087;28;20668;-50
2022/03/23 09:15:30;;;;;;;30.07;22.00;;;17.90;1.00;;;;;;4976092;28;20334;-55
2022/03/23 09:18:01;;;;;;;31.80;21.70;;;17.80;1.00;;;;;;4969217;28;20297;-53
2022/03/23 09:20:28;;;;;;;31.67;21.37;;;18.30;1.00;;;;;;4974633;28;20240;-53
2022/03/23 09:22:59;;;;;;;28.03;20.57;;;18.60;1.00;;;;;;4970623;28;20205;-52
2022/03/23 09:25:27;;;;;;;32.43;22.13;;;18.60;1.00;;;;;;4969691;28;20322;-53
2022/03/23 09:27:53;;;;;;;33.03;22.37;;;19.20;1.00;;;;;;4971235;28;20283;-53
2022/03/23 09:30:21;;;;;;;28.63;19.70;;;19.10;1.00;;;;;;4975075;28;20203;-51
2022/03/23 09:32:48;;;;;;;34.63;21.37;;;19.10;1.00;;;;;;4970580;28;20347;-54
2022/03/23 09:35:16;;;;;;;31.40;22.17;;;19.00;1.00;;;;;;4975723;28;20300;-55
2022/03/23 09:37:50;;;;;;;32.50;21.93;;;19.30;1.00;;;;;;4968109;28;20261;-55
2022/03/23 09:40:27;;;;;;;32.17;21.23;;;19.50;1.00;;;;;;4975420;28;20205;-51
2022/03/23 09:43:02;;;;;;;31.87;21.23;;;19.40;1.00;;;;;;4972549;28;20613;-57
2022/03/23 09:47:56;;;;;;;33.97;24.27;;;19.40;1.00;;;;;;4970382;28;20222;-52
2022/03/23 09:50:27;;;;;;;38.83;26.37;;;18.20;1.00;;;;;;4971501;28;20732;-52
2022/03/23 09:52:55;;;;;;;30.10;22.20;;;18.40;1.00;;;;;;5002302;28;20234;-53
2022/03/23 09:55:22;;;;;;;26.57;19.80;;;18.90;1.00;;;;;;4971314;28;21435;-52
2022/03/23 09:57:48;;;;;;;38.20;23.77;;;18.70;1.00;;;;;;4974339;28;20301;-53
2022/03/23 10:00:15;;;;;;;28.87;20.73;;;18.60;1.00;;;;;;4973898;28;20241;-51
2022/03/23 10:02:57;;;;;;;35.17;22.20;;;18.70;1.00;;;;;;4968298;28;20625;-53
2022/03/23 10:05:45;;;;;;;40.93;23.80;;;18.60;1.00;;;;;;4969434;28;20207;-53
2022/03/23 10:08:42;;;;;;;28.90;21.73;;;18.70;1.00;;;;;;4972396;28;20209;-52
2022/03/23 10:11:56;;;;;;;30.63;22.07;;;18.90;1.00;;;;;;4972396;28;20214;-53
2022/03/23 10:15:15;;;;;;;31.00;21.87;;;19.30;1.00;;;;;;4978866;28;20209;-53
2022/03/23 10:17:44;;;;;;;30.50;20.80;;;19.70;1.00;;;;;;5002208;28;20888;-52
2022/03/23 10:20:12;;;;;;;33.90;21.57;;;19.20;1.00;;;;;;4978477;28;20542;-53
2022/03/23 10:22:51;;;;;;;30.07;22.43;;;19.30;1.00;;;;;;4974165;28;20273;-53
2022/03/23 10:25:28;;;;;;;31.00;22.13;;;19.80;1.00;;;;;;4977860;28;20713;-52
2022/03/23 10:27:56;;;;;;;31.80;22.00;;;20.00;1.00;;;;;;4974486;28;20210;-53
2022/03/23 10:30:37;;;;;;;32.00;20.17;;;19.90;1.00;;;;;;4978247;28;20293;-51
2022/03/23 10:33:25;;;;;;;29.17;20.20;;;19.80;1.00;;;;;;4976543;28;20198;-51
2022/03/23 10:35:52;;;;;;;29.27;20.40;;;20.00;1.00;;;;;;4978654;28;20253;-51
2022/03/23 10:38:21;;;;;;;30.40;21.17;;;19.90;1.00;;;;;;4976220;28;20272;-52
2022/03/23 10:40:51;;;;;;;29.40;20.87;;;20.00;1.00;;;;;;4977637;28;20674;-53
2022/03/23 10:43:34;;;;;;;32.13;22.13;;;20.10;1.00;;;;;;4976498;28;20310;-52
2022/03/23 10:46:11;;;;;;;31.77;21.90;;;19.90;1.00;;;;;;4968756;28;20221;-53
2022/03/23 10:48:58;;;;;;;30.50;20.53;;;19.40;1.00;;;;;;4969786;28;20202;-52
2022/03/23 10:51:28;;;;;;;30.37;22.07;;;19.80;1.00;;;;;;4973755;28;20288;-52
2022/03/23 10:53:55;;;;;;;33.50;21.40;;;19.90;1.00;;;;;;4974819;28;20225;-51
2022/03/23 10:56:37;;;;;;;29.67;22.13;;;19.80;1.00;;;;;;4976093;28;20564;-53
2022/03/23 10:59:16;;;;;;;28.13;20.20;;;20.40;1.00;;;;;;4970098;28;20293;-53
2022/03/23 11:02:08;;;;;;;31.37;21.70;;;20.40;1.00;;;;;;4969868;28;20682;-52
2022/03/23 11:04:53;;;;;;;28.97;20.73;;;20.00;1.00;;;;;;4971675;28;20225;-52
2022/03/23 11:07:29;;;;;;;31.13;21.67;;;20.50;1.00;;;;;;4979251;28;20232;-51
2022/03/23 11:15:48;;;;;;;29.63;20.93;;;20.70;1.00;;;;;;4976423;28;20308;-50
2022/03/23 11:18:20;;;;;;;28.00;20.70;;;20.60;1.00;;;;;;4971838;28;20234;-50
2022/03/23 11:20:52;;;;;;;26.87;19.97;;;20.80;1.00;;;;;;4977786;28;20254;-52
2022/03/23 11:23:24;;;;;;;32.23;20.73;;;20.60;1.00;;;;;;4977283;28;20301;-53
2022/03/23 11:25:56;;;;;;;31.03;21.20;;;20.80;1.00;;;;;;4978103;28;20232;-52
2022/03/23 11:28:28;;;;;;;32.37;19.23;;;21.20;1.00;;;;;;4980876;28;20209;-53
2022/03/23 11:30:56;;;;;;;30.77;20.50;;;20.90;1.00;;;;;;4973866;28;20886;-54
2022/03/23 11:33:26;;;;;;;27.07;21.03;;;21.10;1.00;;;;;;4977677;28;20202;-52
2022/03/23 11:35:53;;;;;;;26.33;21.20;;;20.60;1.00;;;;;;4974342;28;20253;-53
2022/03/23 11:38:23;;;;;;;25.70;16.30;;;20.80;1.00;;;;;;4980399;28;20625;-52
2022/03/23 11:40:52;;;;;;;23.73;16.33;;;21.30;1.00;;;;;;4977683;28;20206;-52
2022/03/23 11:43:21;;;;;;;23.40;18.27;;;21.30;1.00;;;;;;4978118;28;21118;-53
2022/03/23 11:46:10;;;;;;;25.03;18.80;;;21.60;1.00;;;;;;4979346;28;20233;-53
2022/03/23 11:48:54;;;;;;;25.40;19.57;;;21.30;1.00;;;;;;4974971;28;20199;-53
2022/03/23 11:51:57;;;;;;;25.30;19.30;;;20.80;1.00;;;;;;4976943;28;20694;-52
2022/03/23 11:57:54;;;;;;;26.20;19.97;;;21.50;1.00;;;;;;4977912;28;20325;-54
2022/03/23 12:00:25;;;;;;;26.23;19.53;;;21.90;1.00;;;;;;4980023;28;20226;-52
2022/03/23 12:02:56;;;;;;;23.13;18.40;;;22.60;1.00;;;;;;4977080;28;20293;-53
2022/03/23 12:05:29;;;;;;;24.27;18.80;;;22.00;1.00;;;;;;4993695;28;20565;-53
2022/03/23 12:08:02;;;;;;;21.90;17.93;;;22.60;1.00;;;;;;4977965;28;20202;-52
2022/03/23 12:10:32;;;;;;;26.73;18.30;;;22.80;1.00;;;;;;4977712;28;20704;-54
2022/03/23 12:13:16;;;;;;;24.67;18.67;;;22.10;1.00;;;;;;4976751;28;21055;-52
2022/03/23 12:16:01;;;;;;;23.40;18.03;;;22.00;1.00;;;;;;4979331;28;20214;-53
2022/03/23 12:18:41;;;;;;;24.30;17.97;;;22.40;1.00;;;;;;4975696;28;20206;-53
2022/03/23 12:21:11;;;;;;;23.13;17.87;;;22.20;1.00;;;;;;4979672;28;20206;-52
2022/03/23 12:24:02;;;;;;;20.40;16.67;;;22.20;1.00;;;;;;4980072;28;20205;-52
2022/03/23 12:26:39;;;;;;;21.17;16.47;;;21.90;1.00;;;;;;4976973;28;20305;-52
2022/03/23 12:29:15;;;;;;;27.00;17.67;;;22.60;1.00;;;;;;4978334;28;20284;-55
2022/03/23 12:31:42;;;;;;;26.47;18.43;;;23.10;1.00;;;;;;4978491;28;20816;-53
2022/03/23 12:34:20;;;;;;;24.07;18.17;;;22.60;1.00;;;;;;4976482;28;20595;-52
2022/03/23 12:37:01;;;;;;;22.37;18.20;;;23.50;1.00;;;;;;4981176;28;20833;-53
2022/03/23 12:39:37;;;;;;;22.57;15.90;;;22.60;1.00;;;;;;4981284;28;20206;-54
2022/03/23 12:42:15;;;;;;;21.17;17.10;;;22.30;1.00;;;;;;4978518;28;20255;-53
2022/03/23 12:44:47;;;;;;;22.23;17.43;;;22.60;1.00;;;;;;4979099;28;20218;-52
2022/03/23 12:47:21;;;;;;;24.57;18.90;;;22.40;1.00;;;;;;4977898;28;20245;-52
2022/03/23 12:58:34;;;;;;;18.40;16.00;;;23.00;1.00;;;;;;4976581;28;20210;-51
2022/03/23 13:01:18;;;;;;;20.83;17.07;;;22.70;1.00;;;;;;4975947;28;20722;-51
2022/03/23 13:03:48;;;;;;;23.30;16.93;;;22.70;1.00;;;;;;4978349;28;20329;-50
2022/03/23 13:06:30;;;;;;;18.63;16.27;;;22.70;1.00;;;;;;4977129;28;20229;-51
2022/03/23 13:08:57;;;;;;;21.33;17.07;;;22.30;1.00;;;;;;4980030;28;20207;-53
2022/03/23 13:11:29;;;;;;;20.50;17.07;;;22.90;1.00;;;;;;4980188;28;20233;-53
2022/03/23 13:13:58;;;;;;;20.23;17.03;;;22.90;1.00;;;;;;4977140;28;20743;-55
2022/03/23 13:16:27;;;;;;;20.80;16.70;;;23.20;1.00;;;;;;4979168;28;20261;-52
2022/03/23 13:19:02;;;;;;;19.60;15.77;;;23.50;1.00;;;;;;4976318;28;20700;-52